Skip Navigation Links
NOAA logo - Click to go to the NOAA homepage
NOAA's National Weather Service
Alaska Aviation Weather Unit
  NWS logo - Click to go to the NWS homepage
Left Navbar Graphic     22 AKDT = 06 GMT

   
NOAA is celebrating 200 years of science, service, and stewardship. Visit the NOAA 200th celebration Web site to learn more.
USA.gov is the U.S. Government's official Web portal to all Federal, state and local government Web resources and services.
Facebook
NWS on Facebook

Important Change Regarding the AAWU Web Presence

 

Over the last several months, the AAWU has been working to navigate its webpages to a nationally supported server. Security, as well as other needs, have necessitated the change.  We have been given an extension for the site changeover while we diligently work at addressing feedback received. As of July 14, 2017, aawu.arh.noaa.gov will be discontinued. The new AAWU web address is weather.gov/aawu. It is now live and will run in-parallel with the old site until it is discontinued on July 14, 2017. Please continue to send any feedback or questions regarding the new webpages to nws.ar.aawu.webauthors@noaa.gov.  Thank you for your patience during this time of transition.
AAWU Home :: Display TAF Add Bookmark
TAF CYYE 260038Z 2601/2613 VRB03KT P6SM FEW060 SCT210
    RMK NXT FCST BY 260700Z=

METAR CYYE 260000Z 12002KT 20SM FEW060CB SCT140 BKN230 28/14 A2983 RMK CB2AC2CI1 SLP104 DENSITY ALT 3200FT= METAR CYYE 260100Z 10003KT 20SM FEW060TCU SCT140 BKN230 29/12 A2982 RMK TCU1AC2CI2 SLP100 DENSITY ALT 3300FT= METAR CYYE 260200Z VRB02KT 20SM FEW060 FEW150 SCT230 29/11 A2981 RMK CU1AC2CI2 CU TR TCU TOPS DIST N, S SLP096 DENSITY ALT 3300FT= METAR CYYE 260300Z 00000KT 20SM FEW150 SCT230 26/17 A2980 RMK AC2CI2 TCU TOPS DIST S SLP095 DENSITY ALT 2900FT= METAR CYYE 260400Z 33002KT 20SM FEW150 SCT240 23/17 A2980 RMK AC2CI2 CB TOPS DIST SE-S SLP094 DENSITY ALT 2700FT= METAR CYYE 260500Z 29002KT 20SM SCT160 BKN240 20/17 A2979 RMK AC3CI2 SLP093 DENSITY ALT 2400FT= METAR CYYE 260600Z 26002KT 15SM SCT160 BKN240 19/16 A2980 RMK AC3CI2 SLP094 DENSITY ALT 2200FT=
 Alaska TAF Map

NOAA's National Weather Service
Alaska Aviation Weather Unit
6930 Sand Lake Road
Anchorage, AK 99502-1845
Disclaimer
Credits
Glossary
Privacy Policy
About Us
Career Opportunities
Contact AAWU Internet Services Site last modified: April, 17th 2012